sensor_id;sensor_type;location;lat;lon;timestamp;P1;durP1;ratioP1;P2;durP2;ratioP2
44197;SDS011;30157;55.512;37.764;2024-01-15T00:00:00;18.15;;;8.88;;
44197;SDS011;30157;55.512;37.764;2024-01-15T00:02:29;20.15;;;8.95;;
44197;SDS011;30157;55.512;37.764;2024-01-15T00:04:55;22.40;;;9.77;;
44197;SDS011;30157;55.512;37.764;2024-01-15T00:07:21;15.18;;;7.63;;
44197;SDS011;30157;55.512;37.764;2024-01-15T00:09:50;18.08;;;8.40;;
44197;SDS011;30157;55.512;37.764;2024-01-15T00:12:16;15.98;;;7.97;;
44197;SDS011;30157;55.512;37.764;2024-01-15T00:14:42;22.42;;;9.50;;
44197;SDS011;30157;55.512;37.764;2024-01-15T00:17:07;18.63;;;9.73;;
44197;SDS011;30157;55.512;37.764;2024-01-15T00:19:33;13.77;;;6.07;;
44197;SDS011;30157;55.512;37.764;2024-01-15T00:21:59;21.25;;;9.93;;
44197;SDS011;30157;55.512;37.764;2024-01-15T00:24:28;23.75;;;9.30;;
44197;SDS011;30157;55.512;37.764;2024-01-15T00:26:55;19.13;;;9.30;;
44197;SDS011;30157;55.512;37.764;2024-01-15T00:29:21;17.42;;;8.23;;
44197;SDS011;30157;55.512;37.764;2024-01-15T00:31:47;18.77;;;9.00;;
44197;SDS011;30157;55.512;37.764;2024-01-15T00:34:13;17.45;;;8.13;;
44197;SDS011;30157;55.512;37.764;2024-01-15T00:36:39;18.88;;;9.52;;
44197;SDS011;30157;55.512;37.764;2024-01-15T00:39:05;20.13;;;8.48;;
44197;SDS011;30157;55.512;37.764;2024-01-15T00:41:31;17.50;;;7.97;;
44197;SDS011;30157;55.512;37.764;2024-01-15T00:43:57;22.75;;;9.75;;
44197;SDS011;30157;55.512;37.764;2024-01-15T00:46:22;20.85;;;9.55;;
44197;SDS011;30157;55.512;37.764;2024-01-15T00:48:48;20.25;;;9.52;;
44197;SDS011;30157;55.512;37.764;2024-01-15T00:51:14;12.50;;;6.57;;
44197;SDS011;30157;55.512;37.764;2024-01-15T00:53:40;19.27;;;8.60;;
44197;SDS011;30157;55.512;37.764;2024-01-15T00:56:05;19.33;;;9.10;;
44197;SDS011;30157;55.512;37.764;2024-01-15T00:58:31;21.77;;;9.20;;
44197;SDS011;30157;55.512;37.764;2024-01-15T01:00:57;19.65;;;8.88;;
44197;SDS011;30157;55.512;37.764;2024-01-15T01:03:23;23.25;;;10.82;;
44197;SDS011;30157;55.512;37.764;2024-01-15T01:05:49;22.90;;;10.25;;
44197;SDS011;30157;55.512;37.764;2024-01-15T01:08:15;23.48;;;11.50;;
44197;SDS011;30157;55.512;37.764;2024-01-15T01:10:41;22.35;;;10.05;;
44197;SDS011;30157;55.512;37.764;2024-01-15T01:13:09;18.23;;;8.45;;
44197;SDS011;30157;55.512;37.764;2024-01-15T01:15:35;23.52;;;10.35;;
44197;SDS011;30157;55.512;37.764;2024-01-15T01:18:01;21.88;;;10.07;;
44197;SDS011;30157;55.512;37.764;2024-01-15T01:20:27;20.33;;;9.18;;
44197;SDS011;30157;55.512;37.764;2024-01-15T01:22:52;22.25;;;9.27;;
44197;SDS011;30157;55.512;37.764;2024-01-15T01:25:18;20.10;;;8.85;;
44197;SDS011;30157;55.512;37.764;2024-01-15T01:27:44;19.95;;;9.77;;
44197;SDS011;30157;55.512;37.764;2024-01-15T01:30:10;20.05;;;10.23;;
44197;SDS011;30157;55.512;37.764;2024-01-15T01:32:36;22.02;;;10.05;;
44197;SDS011;30157;55.512;37.764;2024-01-15T01:35:01;22.52;;;9.57;;
44197;SDS011;30157;55.512;37.764;2024-01-15T01:37:29;23.05;;;10.82;;
44197;SDS011;30157;55.512;37.764;2024-01-15T01:39:55;24.27;;;11.30;;
44197;SDS011;30157;55.512;37.764;2024-01-15T01:42:20;22.00;;;9.52;;
44197;SDS011;30157;55.512;37.764;2024-01-15T01:44:46;23.13;;;9.60;;
44197;SDS011;30157;55.512;37.764;2024-01-15T01:47:12;19.83;;;9.07;;
44197;SDS011;30157;55.512;37.764;2024-01-15T01:49:39;17.45;;;8.30;;
44197;SDS011;30157;55.512;37.764;2024-01-15T01:52:06;18.48;;;8.68;;
44197;SDS011;30157;55.512;37.764;2024-01-15T01:54:35;20.48;;;9.68;;
44197;SDS011;30157;55.512;37.764;2024-01-15T01:57:02;19.23;;;9.02;;
44197;SDS011;30157;55.512;37.764;2024-01-15T01:59:29;18.80;;;10.77;;
44197;SDS011;30157;55.512;37.764;2024-01-15T02:01:57;20.30;;;9.57;;
44197;SDS011;30157;55.512;37.764;2024-01-15T02:04:26;21.73;;;10.02;;
44197;SDS011;30157;55.512;37.764;2024-01-15T02:06:53;25.38;;;11.70;;
44197;SDS011;30157;55.512;37.764;2024-01-15T02:09:19;21.52;;;10.52;;
44197;SDS011;30157;55.512;37.764;2024-01-15T02:11:48;22.73;;;9.02;;
44197;SDS011;30157;55.512;37.764;2024-01-15T02:14:14;20.02;;;9.55;;
44197;SDS011;30157;55.512;37.764;2024-01-15T02:16:41;23.65;;;11.15;;
44197;SDS011;30157;55.512;37.764;2024-01-15T02:19:07;23.17;;;11.68;;
44197;SDS011;30157;55.512;37.764;2024-01-15T02:21:32;20.15;;;10.35;;
44197;SDS011;30157;55.512;37.764;2024-01-15T02:24:07;19.23;;;9.57;;
44197;SDS011;30157;55.512;37.764;2024-01-15T02:26:33;22.02;;;10.55;;
44197;SDS011;30157;55.512;37.764;2024-01-15T02:29:01;22.20;;;10.68;;
44197;SDS011;30157;55.512;37.764;2024-01-15T02:31:28;20.08;;;9.98;;
44197;SDS011;30157;55.512;37.764;2024-01-15T02:33:53;20.05;;;8.95;;
44197;SDS011;30157;55.512;37.764;2024-01-15T02:36:22;20.13;;;9.63;;
44197;SDS011;30157;55.512;37.764;2024-01-15T02:38:48;22.02;;;9.57;;
44197;SDS011;30157;55.512;37.764;2024-01-15T02:41:14;20.70;;;8.80;;
44197;SDS011;30157;55.512;37.764;2024-01-15T02:43:40;20.20;;;9.93;;
44197;SDS011;30157;55.512;37.764;2024-01-15T02:46:07;24.58;;;10.85;;
44197;SDS011;30157;55.512;37.764;2024-01-15T02:48:33;23.67;;;10.52;;
44197;SDS011;30157;55.512;37.764;2024-01-15T02:51:01;24.05;;;11.02;;
44197;SDS011;30157;55.512;37.764;2024-01-15T02:53:28;25.20;;;11.95;;
44197;SDS011;30157;55.512;37.764;2024-01-15T02:55:53;24.67;;;10.45;;
44197;SDS011;30157;55.512;37.764;2024-01-15T02:58:20;19.95;;;10.25;;
44197;SDS011;30157;55.512;37.764;2024-01-15T03:00:46;20.33;;;10.82;;
44197;SDS011;30157;55.512;37.764;2024-01-15T03:03:12;27.05;;;11.73;;
44197;SDS011;30157;55.512;37.764;2024-01-15T03:05:38;19.27;;;8.05;;
44197;SDS011;30157;55.512;37.764;2024-01-15T03:08:04;23.70;;;11.32;;
44197;SDS011;30157;55.512;37.764;2024-01-15T03:10:29;23.45;;;10.70;;
44197;SDS011;30157;55.512;37.764;2024-01-15T03:12:55;28.85;;;13.73;;
44197;SDS011;30157;55.512;37.764;2024-01-15T03:15:22;25.17;;;12.18;;
44197;SDS011;30157;55.512;37.764;2024-01-15T03:17:48;28.63;;;13.35;;
44197;SDS011;30157;55.512;37.764;2024-01-15T03:20:14;22.00;;;10.20;;
44197;SDS011;30157;55.512;37.764;2024-01-15T03:22:39;23.08;;;11.05;;
44197;SDS011;30157;55.512;37.764;2024-01-15T03:25:05;27.08;;;13.40;;
44197;SDS011;30157;55.512;37.764;2024-01-15T03:27:32;15.82;;;7.80;;
44197;SDS011;30157;55.512;37.764;2024-01-15T03:29:59;19.30;;;9.02;;
44197;SDS011;30157;55.512;37.764;2024-01-15T03:32:25;23.52;;;11.35;;
44197;SDS011;30157;55.512;37.764;2024-01-15T03:34:51;24.20;;;12.63;;
44197;SDS011;30157;55.512;37.764;2024-01-15T03:37:18;29.52;;;12.70;;
44197;SDS011;30157;55.512;37.764;2024-01-15T03:39:43;22.92;;;9.88;;
44197;SDS011;30157;55.512;37.764;2024-01-15T03:42:09;25.52;;;11.95;;
44197;SDS011;30157;55.512;37.764;2024-01-15T03:44:35;27.88;;;12.02;;
44197;SDS011;30157;55.512;37.764;2024-01-15T03:47:01;25.42;;;12.68;;
44197;SDS011;30157;55.512;37.764;2024-01-15T03:49:26;28.48;;;13.90;;
44197;SDS011;30157;55.512;37.764;2024-01-15T03:51:52;25.20;;;11.52;;
44197;SDS011;30157;55.512;37.764;2024-01-15T03:54:18;19.65;;;10.45;;
44197;SDS011;30157;55.512;37.764;2024-01-15T03:56:44;21.73;;;11.50;;
44197;SDS011;30157;55.512;37.764;2024-01-15T03:59:09;27.08;;;13.80;;
44197;SDS011;30157;55.512;37.764;2024-01-15T04:01:35;25.08;;;11.57;;
44197;SDS011;30157;55.512;37.764;2024-01-15T04:04:01;24.55;;;11.80;;
44197;SDS011;30157;55.512;37.764;2024-01-15T04:06:26;26.92;;;13.20;;
44197;SDS011;30157;55.512;37.764;2024-01-15T04:08:52;26.83;;;12.45;;
44197;SDS011;30157;55.512;37.764;2024-01-15T04:11:18;19.90;;;9.05;;
44197;SDS011;30157;55.512;37.764;2024-01-15T04:13:43;24.67;;;12.38;;
44197;SDS011;30157;55.512;37.764;2024-01-15T04:16:09;27.90;;;12.88;;
44197;SDS011;30157;55.512;37.764;2024-01-15T04:18:35;28.23;;;13.20;;
44197;SDS011;30157;55.512;37.764;2024-01-15T04:21:03;23.45;;;11.50;;
44197;SDS011;30157;55.512;37.764;2024-01-15T04:23:30;23.02;;;9.80;;
44197;SDS011;30157;55.512;37.764;2024-01-15T04:25:55;27.05;;;12.77;;
44197;SDS011;30157;55.512;37.764;2024-01-15T04:28:21;25.83;;;12.35;;
44197;SDS011;30157;55.512;37.764;2024-01-15T04:30:47;27.58;;;13.32;;
44197;SDS011;30157;55.512;37.764;2024-01-15T04:33:13;27.65;;;12.65;;
44197;SDS011;30157;55.512;37.764;2024-01-15T04:35:38;22.90;;;11.57;;
44197;SDS011;30157;55.512;37.764;2024-01-15T04:38:04;31.90;;;15.45;;
44197;SDS011;30157;55.512;37.764;2024-01-15T04:40:30;26.73;;;12.48;;
44197;SDS011;30157;55.512;37.764;2024-01-15T04:42:55;27.33;;;13.05;;
44197;SDS011;30157;55.512;37.764;2024-01-15T04:45:21;28.17;;;14.07;;
44197;SDS011;30157;55.512;37.764;2024-01-15T04:47:54;27.33;;;12.90;;
44197;SDS011;30157;55.512;37.764;2024-01-15T04:50:21;25.52;;;11.98;;
44197;SDS011;30157;55.512;37.764;2024-01-15T04:52:47;29.98;;;13.52;;
44197;SDS011;30157;55.512;37.764;2024-01-15T04:55:13;25.95;;;12.88;;
44197;SDS011;30157;55.512;37.764;2024-01-15T04:57:39;23.23;;;11.98;;
44197;SDS011;30157;55.512;37.764;2024-01-15T05:00:04;26.13;;;12.20;;
44197;SDS011;30157;55.512;37.764;2024-01-15T05:02:31;29.05;;;14.35;;
44197;SDS011;30157;55.512;37.764;2024-01-15T05:04:56;25.67;;;12.35;;
44197;SDS011;30157;55.512;37.764;2024-01-15T05:07:22;29.00;;;14.35;;
44197;SDS011;30157;55.512;37.764;2024-01-15T05:09:48;17.05;;;8.05;;
44197;SDS011;30157;55.512;37.764;2024-01-15T05:12:13;31.80;;;15.27;;
44197;SDS011;30157;55.512;37.764;2024-01-15T05:14:39;29.23;;;15.20;;
44197;SDS011;30157;55.512;37.764;2024-01-15T05:17:05;28.80;;;12.30;;
44197;SDS011;30157;55.512;37.764;2024-01-15T05:19:31;28.45;;;13.75;;
44197;SDS011;30157;55.512;37.764;2024-01-15T05:21:56;31.20;;;14.50;;
44197;SDS011;30157;55.512;37.764;2024-01-15T05:24:22;30.67;;;15.18;;
44197;SDS011;30157;55.512;37.764;2024-01-15T05:26:48;30.50;;;12.35;;
44197;SDS011;30157;55.512;37.764;2024-01-15T05:29:13;29.70;;;14.20;;
44197;SDS011;30157;55.512;37.764;2024-01-15T05:31:39;22.23;;;10.10;;
44197;SDS011;30157;55.512;37.764;2024-01-15T05:34:05;30.50;;;14.45;;
44197;SDS011;30157;55.512;37.764;2024-01-15T05:36:30;34.05;;;14.63;;
44197;SDS011;30157;55.512;37.764;2024-01-15T05:38:56;34.08;;;16.45;;
44197;SDS011;30157;55.512;37.764;2024-01-15T05:41:22;28.92;;;14.45;;
44197;SDS011;30157;55.512;37.764;2024-01-15T05:43:48;30.17;;;14.18;;
44197;SDS011;30157;55.512;37.764;2024-01-15T05:46:13;29.25;;;14.45;;
44197;SDS011;30157;55.512;37.764;2024-01-15T05:48:40;28.95;;;13.48;;
44197;SDS011;30157;55.512;37.764;2024-01-15T05:51:06;37.03;;;15.80;;
44197;SDS011;30157;55.512;37.764;2024-01-15T05:53:32;31.90;;;15.43;;
44197;SDS011;30157;55.512;37.764;2024-01-15T05:55:57;31.52;;;15.02;;
44197;SDS011;30157;55.512;37.764;2024-01-15T05:58:23;31.13;;;15.30;;
44197;SDS011;30157;55.512;37.764;2024-01-15T06:00:49;32.65;;;14.82;;
44197;SDS011;30157;55.512;37.764;2024-01-15T06:03:15;33.55;;;16.50;;
44197;SDS011;30157;55.512;37.764;2024-01-15T06:05:41;38.35;;;17.40;;
44197;SDS011;30157;55.512;37.764;2024-01-15T06:08:07;32.40;;;15.77;;
44197;SDS011;30157;55.512;37.764;2024-01-15T06:10:32;33.92;;;15.10;;
44197;SDS011;30157;55.512;37.764;2024-01-15T06:12:59;27.95;;;13.90;;
44197;SDS011;30157;55.512;37.764;2024-01-15T06:15:25;28.38;;;12.85;;
44197;SDS011;30157;55.512;37.764;2024-01-15T06:17:50;33.65;;;14.85;;
44197;SDS011;30157;55.512;37.764;2024-01-15T06:20:16;27.08;;;12.32;;
44197;SDS011;30157;55.512;37.764;2024-01-15T06:22:42;32.85;;;15.77;;
44197;SDS011;30157;55.512;37.764;2024-01-15T06:25:08;30.05;;;13.70;;
44197;SDS011;30157;55.512;37.764;2024-01-15T06:27:34;29.23;;;14.18;;
44197;SDS011;30157;55.512;37.764;2024-01-15T06:30:00;37.40;;;17.25;;
44197;SDS011;30157;55.512;37.764;2024-01-15T06:32:25;36.33;;;17.40;;
44197;SDS011;30157;55.512;37.764;2024-01-15T06:34:51;33.50;;;15.63;;
44197;SDS011;30157;55.512;37.764;2024-01-15T06:37:17;37.90;;;16.23;;
44197;SDS011;30157;55.512;37.764;2024-01-15T06:39:45;38.42;;;17.73;;
44197;SDS011;30157;55.512;37.764;2024-01-15T06:42:11;34.40;;;15.48;;
44197;SDS011;30157;55.512;37.764;2024-01-15T06:44:36;38.35;;;16.95;;
44197;SDS011;30157;55.512;37.764;2024-01-15T06:47:02;40.33;;;17.65;;
44197;SDS011;30157;55.512;37.764;2024-01-15T06:49:28;38.17;;;18.42;;
44197;SDS011;30157;55.512;37.764;2024-01-15T06:51:55;36.17;;;17.67;;
44197;SDS011;30157;55.512;37.764;2024-01-15T06:54:21;30.23;;;15.23;;
44197;SDS011;30157;55.512;37.764;2024-01-15T06:56:47;35.30;;;17.15;;
44197;SDS011;30157;55.512;37.764;2024-01-15T06:59:13;37.45;;;17.35;;
44197;SDS011;30157;55.512;37.764;2024-01-15T07:01:39;33.95;;;17.00;;
44197;SDS011;30157;55.512;37.764;2024-01-15T07:04:06;33.78;;;15.57;;
44197;SDS011;30157;55.512;37.764;2024-01-15T07:06:31;34.15;;;17.02;;
44197;SDS011;30157;55.512;37.764;2024-01-15T07:08:57;30.33;;;15.07;;
44197;SDS011;30157;55.512;37.764;2024-01-15T07:11:24;30.88;;;15.27;;
44197;SDS011;30157;55.512;37.764;2024-01-15T07:13:49;37.40;;;17.52;;
44197;SDS011;30157;55.512;37.764;2024-01-15T07:16:15;34.65;;;17.90;;
44197;SDS011;30157;55.512;37.764;2024-01-15T07:18:41;36.28;;;18.00;;
44197;SDS011;30157;55.512;37.764;2024-01-15T07:21:07;37.38;;;18.38;;
44197;SDS011;30157;55.512;37.764;2024-01-15T07:23:32;31.35;;;15.13;;
44197;SDS011;30157;55.512;37.764;2024-01-15T07:25:58;33.78;;;16.45;;
44197;SDS011;30157;55.512;37.764;2024-01-15T07:28:24;34.40;;;16.05;;
44197;SDS011;30157;55.512;37.764;2024-01-15T07:30:50;32.00;;;16.20;;
44197;SDS011;30157;55.512;37.764;2024-01-15T07:33:16;33.08;;;16.10;;
44197;SDS011;30157;55.512;37.764;2024-01-15T07:35:42;28.63;;;15.35;;
44197;SDS011;30157;55.512;37.764;2024-01-15T07:38:07;33.20;;;17.05;;
44197;SDS011;30157;55.512;37.764;2024-01-15T07:40:34;33.85;;;16.20;;
44197;SDS011;30157;55.512;37.764;2024-01-15T07:43:00;36.50;;;16.25;;
44197;SDS011;30157;55.512;37.764;2024-01-15T07:45:26;33.40;;;15.65;;
44197;SDS011;30157;55.512;37.764;2024-01-15T07:47:52;33.30;;;14.77;;
44197;SDS011;30157;55.512;37.764;2024-01-15T07:50:17;35.63;;;17.50;;
44197;SDS011;30157;55.512;37.764;2024-01-15T07:52:43;33.42;;;16.23;;
44197;SDS011;30157;55.512;37.764;2024-01-15T07:55:09;33.78;;;17.30;;
44197;SDS011;30157;55.512;37.764;2024-01-15T07:57:35;34.30;;;17.73;;
44197;SDS011;30157;55.512;37.764;2024-01-15T08:00:01;32.60;;;16.73;;
44197;SDS011;30157;55.512;37.764;2024-01-15T08:02:30;29.67;;;15.30;;
44197;SDS011;30157;55.512;37.764;2024-01-15T08:04:57;33.47;;;16.60;;
44197;SDS011;30157;55.512;37.764;2024-01-15T08:07:24;34.85;;;17.63;;
44197;SDS011;30157;55.512;37.764;2024-01-15T08:09:51;34.60;;;15.48;;
44197;SDS011;30157;55.512;37.764;2024-01-15T08:12:17;34.55;;;17.13;;
44197;SDS011;30157;55.512;37.764;2024-01-15T08:14:43;32.60;;;16.50;;
44197;SDS011;30157;55.512;37.764;2024-01-15T08:17:09;38.88;;;17.77;;
44197;SDS011;30157;55.512;37.764;2024-01-15T08:19:35;36.30;;;16.73;;
44197;SDS011;30157;55.512;37.764;2024-01-15T08:22:01;37.22;;;18.23;;
44197;SDS011;30157;55.512;37.764;2024-01-15T08:24:27;36.10;;;17.65;;
44197;SDS011;30157;55.512;37.764;2024-01-15T08:26:54;29.33;;;15.38;;
44197;SDS011;30157;55.512;37.764;2024-01-15T08:29:21;26.67;;;12.40;;
44197;SDS011;30157;55.512;37.764;2024-01-15T08:31:47;28.80;;;14.57;;
44197;SDS011;30157;55.512;37.764;2024-01-15T08:34:13;40.40;;;18.90;;
44197;SDS011;30157;55.512;37.764;2024-01-15T08:36:39;31.35;;;15.57;;
44197;SDS011;30157;55.512;37.764;2024-01-15T08:39:06;34.10;;;16.35;;
44197;SDS011;30157;55.512;37.764;2024-01-15T08:41:32;31.88;;;15.50;;
44197;SDS011;30157;55.512;37.764;2024-01-15T08:43:58;36.45;;;17.50;;
44197;SDS011;30157;55.512;37.764;2024-01-15T08:46:24;35.53;;;16.13;;
44197;SDS011;30157;55.512;37.764;2024-01-15T08:48:50;30.08;;;15.80;;
44197;SDS011;30157;55.512;37.764;2024-01-15T08:51:16;34.58;;;16.75;;
44197;SDS011;30157;55.512;37.764;2024-01-15T08:53:44;32.03;;;15.30;;
44197;SDS011;30157;55.512;37.764;2024-01-15T08:56:09;52.50;;;17.73;;
44197;SDS011;30157;55.512;37.764;2024-01-15T08:58:36;32.13;;;15.88;;
44197;SDS011;30157;55.512;37.764;2024-01-15T09:01:02;41.38;;;16.92;;
44197;SDS011;30157;55.512;37.764;2024-01-15T09:03:27;34.92;;;16.55;;
44197;SDS011;30157;55.512;37.764;2024-01-15T09:05:53;31.20;;;17.25;;
44197;SDS011;30157;55.512;37.764;2024-01-15T09:08:20;31.08;;;15.73;;
44197;SDS011;30157;55.512;37.764;2024-01-15T09:10:45;28.63;;;14.27;;
44197;SDS011;30157;55.512;37.764;2024-01-15T09:13:11;31.48;;;16.38;;
44197;SDS011;30157;55.512;37.764;2024-01-15T09:15:37;30.52;;;16.30;;
44197;SDS011;30157;55.512;37.764;2024-01-15T09:18:02;31.63;;;16.00;;
44197;SDS011;30157;55.512;37.764;2024-01-15T09:20:30;28.65;;;15.23;;
44197;SDS011;30157;55.512;37.764;2024-01-15T09:22:56;29.45;;;14.93;;
44197;SDS011;30157;55.512;37.764;2024-01-15T09:25:21;29.00;;;15.30;;
44197;SDS011;30157;55.512;37.764;2024-01-15T09:27:47;28.23;;;14.90;;
44197;SDS011;30157;55.512;37.764;2024-01-15T09:30:13;31.67;;;16.00;;
44197;SDS011;30157;55.512;37.764;2024-01-15T09:32:39;28.33;;;14.07;;
44197;SDS011;30157;55.512;37.764;2024-01-15T09:35:05;31.52;;;14.43;;
44197;SDS011;30157;55.512;37.764;2024-01-15T09:37:31;27.10;;;14.38;;
44197;SDS011;30157;55.512;37.764;2024-01-15T09:39:57;27.48;;;13.85;;
44197;SDS011;30157;55.512;37.764;2024-01-15T09:42:26;27.67;;;14.00;;
44197;SDS011;30157;55.512;37.764;2024-01-15T09:44:53;28.65;;;15.60;;
44197;SDS011;30157;55.512;37.764;2024-01-15T09:47:20;28.05;;;14.48;;
44197;SDS011;30157;55.512;37.764;2024-01-15T09:49:47;30.38;;;15.88;;
44197;SDS011;30157;55.512;37.764;2024-01-15T09:52:13;30.92;;;15.65;;
44197;SDS011;30157;55.512;37.764;2024-01-15T09:54:43;27.65;;;14.93;;
44197;SDS011;30157;55.512;37.764;2024-01-15T09:57:09;25.20;;;13.82;;
44197;SDS011;30157;55.512;37.764;2024-01-15T09:59:36;26.63;;;13.35;;
44197;SDS011;30157;55.512;37.764;2024-01-15T10:02:04;30.05;;;15.57;;
44197;SDS011;30157;55.512;37.764;2024-01-15T10:04:32;28.05;;;14.43;;
44197;SDS011;30157;55.512;37.764;2024-01-15T10:06:58;28.42;;;15.38;;
44197;SDS011;30157;55.512;37.764;2024-01-15T10:09:26;25.90;;;13.55;;
44197;SDS011;30157;55.512;37.764;2024-01-15T10:11:52;24.80;;;13.73;;
44197;SDS011;30157;55.512;37.764;2024-01-15T10:14:19;26.90;;;15.35;;
44197;SDS011;30157;55.512;37.764;2024-01-15T10:16:45;26.65;;;13.80;;
44197;SDS011;30157;55.512;37.764;2024-01-15T10:19:10;27.13;;;14.57;;
44197;SDS011;30157;55.512;37.764;2024-01-15T10:21:36;30.88;;;15.02;;
44197;SDS011;30157;55.512;37.764;2024-01-15T10:24:03;27.42;;;13.68;;
44197;SDS011;30157;55.512;37.764;2024-01-15T10:26:30;22.90;;;11.88;;
44197;SDS011;30157;55.512;37.764;2024-01-15T10:28:58;28.05;;;14.65;;
44197;SDS011;30157;55.512;37.764;2024-01-15T10:31:25;28.38;;;13.65;;
44197;SDS011;30157;55.512;37.764;2024-01-15T10:33:56;24.30;;;13.52;;
44197;SDS011;30157;55.512;37.764;2024-01-15T10:36:36;27.05;;;13.85;;
44197;SDS011;30157;55.512;37.764;2024-01-15T10:39:05;27.42;;;14.00;;
44197;SDS011;30157;55.512;37.764;2024-01-15T10:41:33;25.80;;;13.75;;
44197;SDS011;30157;55.512;37.764;2024-01-15T10:43:59;22.48;;;12.95;;
44197;SDS011;30157;55.512;37.764;2024-01-15T10:46:28;22.08;;;11.35;;
44197;SDS011;30157;55.512;37.764;2024-01-15T10:48:55;23.10;;;12.60;;
44197;SDS011;30157;55.512;37.764;2024-01-15T10:51:22;26.63;;;13.65;;
44197;SDS011;30157;55.512;37.764;2024-01-15T10:53:49;25.48;;;14.00;;
44197;SDS011;30157;55.512;37.764;2024-01-15T10:56:16;24.50;;;12.27;;
44197;SDS011;30157;55.512;37.764;2024-01-15T10:58:43;26.10;;;12.43;;
44197;SDS011;30157;55.512;37.764;2024-01-15T11:01:11;22.55;;;13.25;;
44197;SDS011;30157;55.512;37.764;2024-01-15T11:03:38;24.58;;;12.88;;
44197;SDS011;30157;55.512;37.764;2024-01-15T11:06:15;23.48;;;14.20;;
44197;SDS011;30157;55.512;37.764;2024-01-15T11:08:42;24.70;;;13.05;;
44197;SDS011;30157;55.512;37.764;2024-01-15T11:11:09;22.88;;;12.30;;
44197;SDS011;30157;55.512;37.764;2024-01-15T11:16:07;25.75;;;13.30;;
44197;SDS011;30157;55.512;37.764;2024-01-15T11:18:40;26.40;;;13.35;;
44197;SDS011;30157;55.512;37.764;2024-01-15T11:23:56;23.65;;;12.70;;
44197;SDS011;30157;55.512;37.764;2024-01-15T11:30:43;23.20;;;12.38;;
44197;SDS011;30157;55.512;37.764;2024-01-15T11:33:32;25.98;;;14.23;;
44197;SDS011;30157;55.512;37.764;2024-01-15T11:36:21;25.70;;;14.40;;
44197;SDS011;30157;55.512;37.764;2024-01-15T11:42:36;21.65;;;11.27;;
44197;SDS011;30157;55.512;37.764;2024-01-15T11:45:28;22.30;;;10.55;;
44197;SDS011;30157;55.512;37.764;2024-01-15T11:50:44;22.67;;;10.73;;
44197;SDS011;30157;55.512;37.764;2024-01-15T11:53:26;21.83;;;12.07;;
44197;SDS011;30157;55.512;37.764;2024-01-15T11:56:02;23.73;;;12.73;;
44197;SDS011;30157;55.512;37.764;2024-01-15T11:58:30;26.75;;;14.02;;
44197;SDS011;30157;55.512;37.764;2024-01-15T12:00:56;26.23;;;13.30;;
44197;SDS011;30157;55.512;37.764;2024-01-15T12:03:26;23.85;;;13.65;;
44197;SDS011;30157;55.512;37.764;2024-01-15T12:08:38;22.23;;;12.15;;
44197;SDS011;30157;55.512;37.764;2024-01-15T12:11:13;24.48;;;12.77;;
44197;SDS011;30157;55.512;37.764;2024-01-15T12:13:42;26.08;;;13.48;;
44197;SDS011;30157;55.512;37.764;2024-01-15T12:16:12;25.67;;;13.55;;
44197;SDS011;30157;55.512;37.764;2024-01-15T12:18:38;20.60;;;11.32;;
44197;SDS011;30157;55.512;37.764;2024-01-15T12:21:04;23.10;;;12.65;;
44197;SDS011;30157;55.512;37.764;2024-01-15T12:23:46;24.73;;;12.32;;
44197;SDS011;30157;55.512;37.764;2024-01-15T12:26:36;20.33;;;10.77;;
44197;SDS011;30157;55.512;37.764;2024-01-15T12:29:33;24.67;;;12.27;;
44197;SDS011;30157;55.512;37.764;2024-01-15T12:32:09;25.33;;;11.63;;
44197;SDS011;30157;55.512;37.764;2024-01-15T12:34:34;27.80;;;14.23;;
44197;SDS011;30157;55.512;37.764;2024-01-15T12:37:00;19.88;;;9.27;;
44197;SDS011;30157;55.512;37.764;2024-01-15T12:39:26;30.23;;;16.17;;
44197;SDS011;30157;55.512;37.764;2024-01-15T12:41:52;22.90;;;12.10;;
44197;SDS011;30157;55.512;37.764;2024-01-15T12:44:18;23.55;;;12.02;;
44197;SDS011;30157;55.512;37.764;2024-01-15T12:46:44;22.73;;;13.65;;
44197;SDS011;30157;55.512;37.764;2024-01-15T12:49:10;24.42;;;12.57;;
44197;SDS011;30157;55.512;37.764;2024-01-15T12:51:38;26.40;;;11.27;;
44197;SDS011;30157;55.512;37.764;2024-01-15T12:54:04;24.17;;;12.57;;
44197;SDS011;30157;55.512;37.764;2024-01-15T12:56:30;20.13;;;11.00;;
44197;SDS011;30157;55.512;37.764;2024-01-15T12:58:56;22.17;;;10.73;;
44197;SDS011;30157;55.512;37.764;2024-01-15T13:01:22;24.60;;;12.70;;
44197;SDS011;30157;55.512;37.764;2024-01-15T13:03:47;25.00;;;12.65;;
44197;SDS011;30157;55.512;37.764;2024-01-15T13:06:13;19.20;;;9.55;;
44197;SDS011;30157;55.512;37.764;2024-01-15T13:08:39;24.23;;;12.38;;
44197;SDS011;30157;55.512;37.764;2024-01-15T13:11:05;23.55;;;12.13;;
44197;SDS011;30157;55.512;37.764;2024-01-15T13:13:31;31.00;;;15.15;;
44197;SDS011;30157;55.512;37.764;2024-01-15T13:15:59;25.15;;;13.13;;
44197;SDS011;30157;55.512;37.764;2024-01-15T13:18:25;25.92;;;14.05;;
44197;SDS011;30157;55.512;37.764;2024-01-15T13:20:51;34.22;;;15.65;;
44197;SDS011;30157;55.512;37.764;2024-01-15T13:23:17;29.20;;;15.95;;
44197;SDS011;30157;55.512;37.764;2024-01-15T13:25:43;29.38;;;15.27;;
44197;SDS011;30157;55.512;37.764;2024-01-15T13:28:09;24.55;;;13.05;;
44197;SDS011;30157;55.512;37.764;2024-01-15T13:30:34;27.52;;;13.35;;
44197;SDS011;30157;55.512;37.764;2024-01-15T13:33:00;24.77;;;12.57;;
44197;SDS011;30157;55.512;37.764;2024-01-15T13:35:29;24.60;;;12.85;;
44197;SDS011;30157;55.512;37.764;2024-01-15T13:37:55;28.15;;;13.50;;
44197;SDS011;30157;55.512;37.764;2024-01-15T13:40:21;24.08;;;12.82;;
44197;SDS011;30157;55.512;37.764;2024-01-15T13:42:47;22.90;;;12.27;;
44197;SDS011;30157;55.512;37.764;2024-01-15T13:45:14;22.75;;;11.27;;
44197;SDS011;30157;55.512;37.764;2024-01-15T13:47:40;25.60;;;13.05;;
44197;SDS011;30157;55.512;37.764;2024-01-15T13:50:07;25.95;;;14.00;;
44197;SDS011;30157;55.512;37.764;2024-01-15T13:52:34;30.23;;;13.70;;
44197;SDS011;30157;55.512;37.764;2024-01-15T13:54:59;22.08;;;9.98;;
44197;SDS011;30157;55.512;37.764;2024-01-15T13:57:25;26.67;;;14.55;;
44197;SDS011;30157;55.512;37.764;2024-01-15T13:59:51;27.20;;;13.63;;
44197;SDS011;30157;55.512;37.764;2024-01-15T14:02:17;25.92;;;14.27;;
44197;SDS011;30157;55.512;37.764;2024-01-15T14:04:42;28.23;;;14.05;;
44197;SDS011;30157;55.512;37.764;2024-01-15T14:07:08;25.73;;;12.82;;
44197;SDS011;30157;55.512;37.764;2024-01-15T14:09:34;26.55;;;13.20;;
44197;SDS011;30157;55.512;37.764;2024-01-15T14:12:00;27.08;;;14.23;;
44197;SDS011;30157;55.512;37.764;2024-01-15T14:14:33;28.38;;;15.23;;
44197;SDS011;30157;55.512;37.764;2024-01-15T14:16:59;26.80;;;14.35;;
44197;SDS011;30157;55.512;37.764;2024-01-15T14:19:25;30.90;;;14.85;;
44197;SDS011;30157;55.512;37.764;2024-01-15T14:21:51;29.48;;;15.15;;
44197;SDS011;30157;55.512;37.764;2024-01-15T14:24:16;30.77;;;14.38;;
44197;SDS011;30157;55.512;37.764;2024-01-15T14:26:42;27.90;;;13.82;;